sensor_id;sensor_type;location;lat;lon;timestamp;temperature;humidity
4314;DHT22;2170;48.794;9.182;2023-12-20T00:01:02;7.10;99.90
4314;DHT22;2170;48.794;9.182;2023-12-20T00:03:29;7.10;99.90
4314;DHT22;2170;48.794;9.182;2023-12-20T00:05:56;7.10;99.90
4314;DHT22;2170;48.794;9.182;2023-12-20T00:08:24;7.10;99.90
4314;DHT22;2170;48.794;9.182;2023-12-20T00:10:50;7.10;99.90
4314;DHT22;2170;48.794;9.182;2023-12-20T00:13:17;7.10;99.90
4314;DHT22;2170;48.794;9.182;2023-12-20T00:15:43;7.10;99.90
4314;DHT22;2170;48.794;9.182;2023-12-20T00:18:10;7.10;99.90
4314;DHT22;2170;48.794;9.182;2023-12-20T00:20:37;7.20;99.90
4314;DHT22;2170;48.794;9.182;2023-12-20T00:23:03;7.20;99.90
4314;DHT22;2170;48.794;9.182;2023-12-20T00:25:31;7.20;99.90
4314;DHT22;2170;48.794;9.182;2023-12-20T00:27:58;7.20;99.90
4314;DHT22;2170;48.794;9.182;2023-12-20T00:30:25;7.20;99.90
4314;DHT22;2170;48.794;9.182;2023-12-20T00:32:51;7.20;99.90
4314;DHT22;2170;48.794;9.182;2023-12-20T00:35:18;7.20;99.90
4314;DHT22;2170;48.794;9.182;2023-12-20T00:37:45;7.20;99.90
4314;DHT22;2170;48.794;9.182;2023-12-20T00:40:12;7.20;99.90
4314;DHT22;2170;48.794;9.182;2023-12-20T00:42:40;7.20;99.90
4314;DHT22;2170;48.794;9.182;2023-12-20T00:45:07;7.20;99.90
4314;DHT22;2170;48.794;9.182;2023-12-20T00:47:34;7.20;99.90
4314;DHT22;2170;48.794;9.182;2023-12-20T00:50:00;7.20;99.90
4314;DHT22;2170;48.794;9.182;2023-12-20T00:52:27;7.20;99.90
4314;DHT22;2170;48.794;9.182;2023-12-20T00:54:54;7.20;99.90
4314;DHT22;2170;48.794;9.182;2023-12-20T00:57:20;7.20;99.90
4314;DHT22;2170;48.794;9.182;2023-12-20T00:59:48;7.20;99.90
4314;DHT22;2170;48.794;9.182;2023-12-20T01:02:18;7.10;99.90
4314;DHT22;2170;48.794;9.182;2023-12-20T01:05:21;7.10;99.90
4314;DHT22;2170;48.794;9.182;2023-12-20T01:08:23;7.10;99.90
4314;DHT22;2170;48.794;9.182;2023-12-20T01:11:32;7.00;99.90
4314;DHT22;2170;48.794;9.182;2023-12-20T01:14:09;7.00;99.90
4314;DHT22;2170;48.794;9.182;2023-12-20T01:17:06;6.90;99.90
4314;DHT22;2170;48.794;9.182;2023-12-20T02:29:16;6.60;99.90
4314;DHT22;2170;48.794;9.182;2023-12-20T05:15:08;6.20;99.90
4314;DHT22;2170;48.794;9.182;2023-12-20T05:17:46;6.20;99.90
4314;DHT22;2170;48.794;9.182;2023-12-20T05:21:01;6.20;99.90
4314;DHT22;2170;48.794;9.182;2023-12-20T05:26:47;6.20;99.90
4314;DHT22;2170;48.794;9.182;2023-12-20T05:29:41;6.20;99.90
4314;DHT22;2170;48.794;9.182;2023-12-20T05:35:31;6.20;99.90
4314;DHT22;2170;48.794;9.182;2023-12-20T05:41:14;6.40;99.90
4314;DHT22;2170;48.794;9.182;2023-12-20T06:04:14;6.10;99.90
4314;DHT22;2170;48.794;9.182;2023-12-20T06:17:41;6.10;99.90
4314;DHT22;2170;48.794;9.182;2023-12-20T06:21:03;6.20;99.90
4314;DHT22;2170;48.794;9.182;2023-12-20T06:33:48;6.20;99.90
4314;DHT22;2170;48.794;9.182;2023-12-20T06:36:44;6.20;99.90
4314;DHT22;2170;48.794;9.182;2023-12-20T06:40:02;6.20;99.90
4314;DHT22;2170;48.794;9.182;2023-12-20T06:43:24;6.20;99.90
4314;DHT22;2170;48.794;9.182;2023-12-20T06:46:13;6.20;99.90
4314;DHT22;2170;48.794;9.182;2023-12-20T06:49:26;6.20;99.90
4314;DHT22;2170;48.794;9.182;2023-12-20T06:52:47;6.30;99.90
4314;DHT22;2170;48.794;9.182;2023-12-20T06:55:02;6.30;99.90
4314;DHT22;2170;48.794;9.182;2023-12-20T06:57:39;6.40;99.90
4314;DHT22;2170;48.794;9.182;2023-12-20T07:00:27;6.30;99.90
4314;DHT22;2170;48.794;9.182;2023-12-20T07:03:23;6.40;99.90
4314;DHT22;2170;48.794;9.182;2023-12-20T07:06:03;6.40;99.90
4314;DHT22;2170;48.794;9.182;2023-12-20T07:09:01;6.70;99.90
4314;DHT22;2170;48.794;9.182;2023-12-20T07:11:52;6.50;99.90
4314;DHT22;2170;48.794;9.182;2023-12-20T07:14:36;6.50;99.90
4314;DHT22;2170;48.794;9.182;2023-12-20T07:17:13;6.50;99.90
4314;DHT22;2170;48.794;9.182;2023-12-20T07:20:04;6.40;99.90
4314;DHT22;2170;48.794;9.182;2023-12-20T07:25:32;6.40;99.90
4314;DHT22;2170;48.794;9.182;2023-12-20T07:28:34;6.40;99.90
4314;DHT22;2170;48.794;9.182;2023-12-20T07:31:27;6.40;99.90
4314;DHT22;2170;48.794;9.182;2023-12-20T07:34:05;6.40;99.90
4314;DHT22;2170;48.794;9.182;2023-12-20T07:37:06;6.40;99.90
4314;DHT22;2170;48.794;9.182;2023-12-20T07:39:49;6.40;99.90
4314;DHT22;2170;48.794;9.182;2023-12-20T07:42:37;6.40;99.90
4314;DHT22;2170;48.794;9.182;2023-12-20T07:45:21;6.40;99.90
4314;DHT22;2170;48.794;9.182;2023-12-20T07:48:32;6.40;99.90
4314;DHT22;2170;48.794;9.182;2023-12-20T07:51:23;6.30;99.90
4314;DHT22;2170;48.794;9.182;2023-12-20T07:54:08;6.30;99.90
4314;DHT22;2170;48.794;9.182;2023-12-20T07:56:54;6.30;99.90
4314;DHT22;2170;48.794;9.182;2023-12-20T07:59:45;6.00;99.90
4314;DHT22;2170;48.794;9.182;2023-12-20T08:02:21;6.30;99.90
4314;DHT22;2170;48.794;9.182;2023-12-20T08:05:38;6.20;99.90
4314;DHT22;2170;48.794;9.182;2023-12-20T08:08:27;6.20;99.90
4314;DHT22;2170;48.794;9.182;2023-12-20T08:11:37;6.20;99.90
4314;DHT22;2170;48.794;9.182;2023-12-20T08:14:47;5.80;99.90
4314;DHT22;2170;48.794;9.182;2023-12-20T08:17:51;6.10;99.90
4314;DHT22;2170;48.794;9.182;2023-12-20T08:20:31;6.10;99.90
4314;DHT22;2170;48.794;9.182;2023-12-20T08:23:03;6.10;99.90
4314;DHT22;2170;48.794;9.182;2023-12-20T08:25:43;6.00;99.90
4314;DHT22;2170;48.794;9.182;2023-12-20T08:28:24;6.00;99.90
4314;DHT22;2170;48.794;9.182;2023-12-20T08:31:23;6.10;99.90
4314;DHT22;2170;48.794;9.182;2023-12-20T08:33:59;6.10;99.90
4314;DHT22;2170;48.794;9.182;2023-12-20T08:36:48;6.10;99.90
4314;DHT22;2170;48.794;9.182;2023-12-20T08:39:27;6.10;99.90
4314;DHT22;2170;48.794;9.182;2023-12-20T08:42:05;6.10;99.90
4314;DHT22;2170;48.794;9.182;2023-12-20T08:45:07;6.10;99.90
4314;DHT22;2170;48.794;9.182;2023-12-20T08:50:59;6.10;99.90
4314;DHT22;2170;48.794;9.182;2023-12-20T08:53:48;6.10;99.90
4314;DHT22;2170;48.794;9.182;2023-12-20T08:59:25;6.30;99.90
4314;DHT22;2170;48.794;9.182;2023-12-20T09:01:57;6.40;99.90
4314;DHT22;2170;48.794;9.182;2023-12-20T09:04:27;6.50;99.90
4314;DHT22;2170;48.794;9.182;2023-12-20T09:06:54;6.50;99.90
4314;DHT22;2170;48.794;9.182;2023-12-20T09:09:21;6.70;99.90
4314;DHT22;2170;48.794;9.182;2023-12-20T09:11:48;6.80;99.90
4314;DHT22;2170;48.794;9.182;2023-12-20T09:14:16;6.90;99.90
4314;DHT22;2170;48.794;9.182;2023-12-20T09:16:43;7.00;99.90
4314;DHT22;2170;48.794;9.182;2023-12-20T09:19:10;7.10;99.90
4314;DHT22;2170;48.794;9.182;2023-12-20T09:21:38;7.20;99.90
4314;DHT22;2170;48.794;9.182;2023-12-20T09:24:05;7.40;99.90
4314;DHT22;2170;48.794;9.182;2023-12-20T09:26:31;7.40;99.90
4314;DHT22;2170;48.794;9.182;2023-12-20T09:28:58;7.40;99.90
4314;DHT22;2170;48.794;9.182;2023-12-20T09:31:25;7.30;99.90
4314;DHT22;2170;48.794;9.182;2023-12-20T09:33:52;7.50;99.90
4314;DHT22;2170;48.794;9.182;2023-12-20T09:36:19;7.60;99.90
4314;DHT22;2170;48.794;9.182;2023-12-20T09:38:47;7.80;99.90
4314;DHT22;2170;48.794;9.182;2023-12-20T09:41:14;7.60;99.90
4314;DHT22;2170;48.794;9.182;2023-12-20T09:43:42;7.70;99.90
4314;DHT22;2170;48.794;9.182;2023-12-20T09:46:12;7.70;99.90
4314;DHT22;2170;48.794;9.182;2023-12-20T09:48:41;7.90;99.90
4314;DHT22;2170;48.794;9.182;2023-12-20T09:51:09;7.80;99.90
4314;DHT22;2170;48.794;9.182;2023-12-20T09:53:37;7.90;99.90
4314;DHT22;2170;48.794;9.182;2023-12-20T09:56:06;7.90;99.90
4314;DHT22;2170;48.794;9.182;2023-12-20T09:58:36;8.00;99.90
4314;DHT22;2170;48.794;9.182;2023-12-20T10:01:03;8.10;99.90
4314;DHT22;2170;48.794;9.182;2023-12-20T10:03:31;8.20;99.90
4314;DHT22;2170;48.794;9.182;2023-12-20T10:05:58;8.20;99.90
4314;DHT22;2170;48.794;9.182;2023-12-20T10:08:26;8.30;99.90
4314;DHT22;2170;48.794;9.182;2023-12-20T10:10:53;8.40;99.90
4314;DHT22;2170;48.794;9.182;2023-12-20T10:13:21;8.50;99.90
4314;DHT22;2170;48.794;9.182;2023-12-20T10:15:49;8.50;99.90
4314;DHT22;2170;48.794;9.182;2023-12-20T10:18:17;8.60;99.90
4314;DHT22;2170;48.794;9.182;2023-12-20T10:20:44;8.60;99.90
4314;DHT22;2170;48.794;9.182;2023-12-20T10:23:11;8.50;99.90
4314;DHT22;2170;48.794;9.182;2023-12-20T10:25:39;8.20;99.90
4314;DHT22;2170;48.794;9.182;2023-12-20T10:28:10;8.10;99.90
4314;DHT22;2170;48.794;9.182;2023-12-20T10:30:40;8.00;99.90
4314;DHT22;2170;48.794;9.182;2023-12-20T10:33:07;7.90;99.90
4314;DHT22;2170;48.794;9.182;2023-12-20T10:35:34;7.70;99.90
4314;DHT22;2170;48.794;9.182;2023-12-20T10:38:03;7.50;99.90
4314;DHT22;2170;48.794;9.182;2023-12-20T10:40:30;7.50;99.90
4314;DHT22;2170;48.794;9.182;2023-12-20T10:42:58;7.40;99.90
4314;DHT22;2170;48.794;9.182;2023-12-20T10:45:26;7.40;99.90
4314;DHT22;2170;48.794;9.182;2023-12-20T10:47:56;7.30;99.90
4314;DHT22;2170;48.794;9.182;2023-12-20T10:50:25;7.20;99.90
4314;DHT22;2170;48.794;9.182;2023-12-20T10:52:54;7.20;99.90
4314;DHT22;2170;48.794;9.182;2023-12-20T10:55:21;7.20;99.90
4314;DHT22;2170;48.794;9.182;2023-12-20T10:57:49;7.10;99.90
4314;DHT22;2170;48.794;9.182;2023-12-20T11:00:18;7.00;99.90
4314;DHT22;2170;48.794;9.182;2023-12-20T11:02:45;7.00;99.90
4314;DHT22;2170;48.794;9.182;2023-12-20T11:05:27;6.90;99.90
4314;DHT22;2170;48.794;9.182;2023-12-20T11:07:59;6.70;99.90
4314;DHT22;2170;48.794;9.182;2023-12-20T11:10:31;6.80;99.90
4314;DHT22;2170;48.794;9.182;2023-12-20T11:13:06;6.80;99.90
4314;DHT22;2170;48.794;9.182;2023-12-20T11:15:35;6.80;99.90
4314;DHT22;2170;48.794;9.182;2023-12-20T11:18:04;6.90;99.90
4314;DHT22;2170;48.794;9.182;2023-12-20T11:20:38;6.90;99.90
4314;DHT22;2170;48.794;9.182;2023-12-20T11:23:06;6.90;99.90
4314;DHT22;2170;48.794;9.182;2023-12-20T11:25:46;6.90;99.90
4314;DHT22;2170;48.794;9.182;2023-12-20T11:28:14;6.90;99.90
4314;DHT22;2170;48.794;9.182;2023-12-20T11:30:41;6.80;99.90
4314;DHT22;2170;48.794;9.182;2023-12-20T11:33:08;6.70;99.90
4314;DHT22;2170;48.794;9.182;2023-12-20T11:35:37;6.70;99.90
4314;DHT22;2170;48.794;9.182;2023-12-20T11:38:07;7.10;99.90
4314;DHT22;2170;48.794;9.182;2023-12-20T11:40:35;6.80;99.90
4314;DHT22;2170;48.794;9.182;2023-12-20T11:43:03;6.80;99.90
4314;DHT22;2170;48.794;9.182;2023-12-20T11:45:30;6.80;99.90
4314;DHT22;2170;48.794;9.182;2023-12-20T11:47:57;6.70;99.90
4314;DHT22;2170;48.794;9.182;2023-12-20T11:50:24;6.70;99.90
4314;DHT22;2170;48.794;9.182;2023-12-20T11:52:53;6.70;99.90
4314;DHT22;2170;48.794;9.182;2023-12-20T11:55:21;6.70;99.90
4314;DHT22;2170;48.794;9.182;2023-12-20T11:57:47;6.70;99.90
4314;DHT22;2170;48.794;9.182;2023-12-20T12:00:15;6.70;99.90
4314;DHT22;2170;48.794;9.182;2023-12-20T12:02:42;6.60;99.90
4314;DHT22;2170;48.794;9.182;2023-12-20T12:05:09;6.60;99.90
4314;DHT22;2170;48.794;9.182;2023-12-20T12:07:35;6.60;99.90
4314;DHT22;2170;48.794;9.182;2023-12-20T12:10:05;6.70;99.90
4314;DHT22;2170;48.794;9.182;2023-12-20T12:12:32;6.70;99.90
4314;DHT22;2170;48.794;9.182;2023-12-20T12:14:59;6.70;99.90
4314;DHT22;2170;48.794;9.182;2023-12-20T12:17:26;6.70;99.90
4314;DHT22;2170;48.794;9.182;2023-12-20T12:20:02;6.80;99.90
4314;DHT22;2170;48.794;9.182;2023-12-20T12:22:29;6.80;99.90
4314;DHT22;2170;48.794;9.182;2023-12-20T12:24:59;6.80;99.90
4314;DHT22;2170;48.794;9.182;2023-12-20T12:27:29;6.90;99.90
4314;DHT22;2170;48.794;9.182;2023-12-20T12:30:03;7.00;99.90
4314;DHT22;2170;48.794;9.182;2023-12-20T12:32:35;7.00;99.90
4314;DHT22;2170;48.794;9.182;2023-12-20T12:35:03;7.00;99.90
4314;DHT22;2170;48.794;9.182;2023-12-20T12:37:33;7.10;99.90
4314;DHT22;2170;48.794;9.182;2023-12-20T12:40:00;7.10;99.90
4314;DHT22;2170;48.794;9.182;2023-12-20T12:42:29;7.10;99.90
4314;DHT22;2170;48.794;9.182;2023-12-20T12:44:55;7.10;99.90
4314;DHT22;2170;48.794;9.182;2023-12-20T12:47:22;7.00;99.90
4314;DHT22;2170;48.794;9.182;2023-12-20T12:49:51;7.00;99.90
4314;DHT22;2170;48.794;9.182;2023-12-20T12:52:18;7.00;99.90
4314;DHT22;2170;48.794;9.182;2023-12-20T12:54:44;7.00;99.90
4314;DHT22;2170;48.794;9.182;2023-12-20T12:57:13;7.30;99.90
4314;DHT22;2170;48.794;9.182;2023-12-20T12:59:41;7.30;99.90
4314;DHT22;2170;48.794;9.182;2023-12-20T13:02:09;7.00;99.90
4314;DHT22;2170;48.794;9.182;2023-12-20T13:04:36;7.00;99.90
4314;DHT22;2170;48.794;9.182;2023-12-20T13:07:04;7.00;99.90
4314;DHT22;2170;48.794;9.182;2023-12-20T13:09:31;7.00;99.90
4314;DHT22;2170;48.794;9.182;2023-12-20T13:11:58;7.00;99.90
4314;DHT22;2170;48.794;9.182;2023-12-20T13:14:27;6.90;99.90
4314;DHT22;2170;48.794;9.182;2023-12-20T13:16:55;6.90;99.90
4314;DHT22;2170;48.794;9.182;2023-12-20T13:19:22;6.90;99.90
4314;DHT22;2170;48.794;9.182;2023-12-20T13:21:49;6.90;99.90
4314;DHT22;2170;48.794;9.182;2023-12-20T13:24:15;6.90;99.90
4314;DHT22;2170;48.794;9.182;2023-12-20T13:26:42;6.90;99.90
4314;DHT22;2170;48.794;9.182;2023-12-20T13:29:09;6.90;99.90
4314;DHT22;2170;48.794;9.182;2023-12-20T13:31:36;7.00;99.90
4314;DHT22;2170;48.794;9.182;2023-12-20T13:34:04;7.00;99.90
4314;DHT22;2170;48.794;9.182;2023-12-20T13:36:31;7.10;99.90
4314;DHT22;2170;48.794;9.182;2023-12-20T13:38:57;7.10;99.90
4314;DHT22;2170;48.794;9.182;2023-12-20T13:41:24;7.20;99.90
4314;DHT22;2170;48.794;9.182;2023-12-20T13:43:51;7.30;99.90
4314;DHT22;2170;48.794;9.182;2023-12-20T13:46:18;7.20;99.90
4314;DHT22;2170;48.794;9.182;2023-12-20T13:48:44;7.20;99.90
4314;DHT22;2170;48.794;9.182;2023-12-20T13:51:13;7.10;99.90
4314;DHT22;2170;48.794;9.182;2023-12-20T13:53:39;7.40;99.90
4314;DHT22;2170;48.794;9.182;2023-12-20T13:56:06;7.10;99.90
4314;DHT22;2170;48.794;9.182;2023-12-20T13:58:33;7.00;99.90
4314;DHT22;2170;48.794;9.182;2023-12-20T14:01:00;7.00;99.90
4314;DHT22;2170;48.794;9.182;2023-12-20T14:03:27;7.00;99.90
4314;DHT22;2170;48.794;9.182;2023-12-20T14:05:53;6.90;99.90
4314;DHT22;2170;48.794;9.182;2023-12-20T14:08:21;6.90;99.90
4314;DHT22;2170;48.794;9.182;2023-12-20T14:10:49;6.90;99.90
4314;DHT22;2170;48.794;9.182;2023-12-20T14:13:16;6.90;99.90
4314;DHT22;2170;48.794;9.182;2023-12-20T14:15:43;6.90;99.90
4314;DHT22;2170;48.794;9.182;2023-12-20T14:18:10;6.90;99.90
4314;DHT22;2170;48.794;9.182;2023-12-20T14:20:38;6.90;99.90
4314;DHT22;2170;48.794;9.182;2023-12-20T14:23:05;6.90;99.90
4314;DHT22;2170;48.794;9.182;2023-12-20T14:25:33;6.80;99.90
4314;DHT22;2170;48.794;9.182;2023-12-20T14:28:02;6.80;99.90
4314;DHT22;2170;48.794;9.182;2023-12-20T14:30:28;6.80;99.90
4314;DHT22;2170;48.794;9.182;2023-12-20T14:32:55;6.70;99.90
4314;DHT22;2170;48.794;9.182;2023-12-20T14:35:22;6.70;99.90
4314;DHT22;2170;48.794;9.182;2023-12-20T14:37:48;6.70;99.90
4314;DHT22;2170;48.794;9.182;2023-12-20T14:40:16;6.70;99.90
4314;DHT22;2170;48.794;9.182;2023-12-20T14:42:44;6.70;99.90
4314;DHT22;2170;48.794;9.182;2023-12-20T14:45:11;6.70;99.90
4314;DHT22;2170;48.794;9.182;2023-12-20T14:47:38;6.70;99.90
4314;DHT22;2170;48.794;9.182;2023-12-20T14:50:06;6.60;99.90
4314;DHT22;2170;48.794;9.182;2023-12-20T14:52:33;6.50;99.90
4314;DHT22;2170;48.794;9.182;2023-12-20T14:55:00;6.40;99.90
4314;DHT22;2170;48.794;9.182;2023-12-20T14:57:28;6.50;99.90
4314;DHT22;2170;48.794;9.182;2023-12-20T14:59:56;6.40;99.90
4314;DHT22;2170;48.794;9.182;2023-12-20T15:02:23;6.50;99.90
4314;DHT22;2170;48.794;9.182;2023-12-20T15:04:49;6.50;99.90
4314;DHT22;2170;48.794;9.182;2023-12-20T15:07:16;6.30;99.90
4314;DHT22;2170;48.794;9.182;2023-12-20T15:09:43;6.40;99.90
4314;DHT22;2170;48.794;9.182;2023-12-20T15:12:11;6.40;99.90
4314;DHT22;2170;48.794;9.182;2023-12-20T15:14:38;6.40;99.90
4314;DHT22;2170;48.794;9.182;2023-12-20T15:17:06;6.30;99.90
4314;DHT22;2170;48.794;9.182;2023-12-20T15:19:33;6.30;99.90
4314;DHT22;2170;48.794;9.182;2023-12-20T15:22:00;6.30;99.90
4314;DHT22;2170;48.794;9.182;2023-12-20T15:24:26;6.30;99.90
4314;DHT22;2170;48.794;9.182;2023-12-20T15:27:01;6.30;99.90
4314;DHT22;2170;48.794;9.182;2023-12-20T15:29:28;6.30;99.90
4314;DHT22;2170;48.794;9.182;2023-12-20T15:31:56;6.30;99.90
4314;DHT22;2170;48.794;9.182;2023-12-20T15:34:24;6.30;99.90
4314;DHT22;2170;48.794;9.182;2023-12-20T15:36:51;6.30;99.90
4314;DHT22;2170;48.794;9.182;2023-12-20T15:39:17;6.20;99.90
4314;DHT22;2170;48.794;9.182;2023-12-20T15:41:44;6.30;99.90
4314;DHT22;2170;48.794;9.182;2023-12-20T15:44:11;6.30;99.90
4314;DHT22;2170;48.794;9.182;2023-12-20T15:46:38;6.30;99.90
4314;DHT22;2170;48.794;9.182;2023-12-20T15:49:05;6.20;99.90
4314;DHT22;2170;48.794;9.182;2023-12-20T15:51:33;6.20;99.90
4314;DHT22;2170;48.794;9.182;2023-12-20T15:54:00;6.20;99.90
4314;DHT22;2170;48.794;9.182;2023-12-20T15:56:31;6.20;99.90
4314;DHT22;2170;48.794;9.182;2023-12-20T15:58:58;6.20;99.90
4314;DHT22;2170;48.794;9.182;2023-12-20T16:01:25;6.20;99.90
4314;DHT22;2170;48.794;9.182;2023-12-20T16:03:52;6.10;99.90
4314;DHT22;2170;48.794;9.182;2023-12-20T16:06:18;6.10;99.90
4314;DHT22;2170;48.794;9.182;2023-12-20T16:08:48;6.20;99.90
4314;DHT22;2170;48.794;9.182;2023-12-20T16:11:15;6.20;99.90
4314;DHT22;2170;48.794;9.182;2023-12-20T16:13:42;6.20;99.90
4314;DHT22;2170;48.794;9.182;2023-12-20T16:16:09;6.40;99.90
4314;DHT22;2170;48.794;9.182;2023-12-20T16:18:36;6.10;99.90
4314;DHT22;2170;48.794;9.182;2023-12-20T16:21:03;6.10;99.90
4314;DHT22;2170;48.794;9.182;2023-12-20T16:23:30;6.10;99.90
4314;DHT22;2170;48.794;9.182;2023-12-20T16:26:00;6.10;99.90
4314;DHT22;2170;48.794;9.182;2023-12-20T16:28:27;6.10;99.90
4314;DHT22;2170;48.794;9.182;2023-12-20T16:30:53;6.10;99.90
4314;DHT22;2170;48.794;9.182;2023-12-20T16:33:21;6.10;99.90
4314;DHT22;2170;48.794;9.182;2023-12-20T16:35:48;6.10;99.90
4314;DHT22;2170;48.794;9.182;2023-12-20T16:38:15;6.00;99.90
4314;DHT22;2170;48.794;9.182;2023-12-20T16:40:42;6.00;99.90
4314;DHT22;2170;48.794;9.182;2023-12-20T16:43:11;6.00;99.90
4314;DHT22;2170;48.794;9.182;2023-12-20T16:45:38;6.00;99.90
4314;DHT22;2170;48.794;9.182;2023-12-20T16:48:05;6.00;99.90
4314;DHT22;2170;48.794;9.182;2023-12-20T16:50:32;6.00;99.90
4314;DHT22;2170;48.794;9.182;2023-12-20T16:52:58;6.00;99.90
4314;DHT22;2170;48.794;9.182;2023-12-20T16:55:24;6.00;99.90
4314;DHT22;2170;48.794;9.182;2023-12-20T16:57:51;6.00;99.90
4314;DHT22;2170;48.794;9.182;2023-12-20T17:00:20;6.00;99.90
4314;DHT22;2170;48.794;9.182;2023-12-20T17:02:48;5.90;99.90
4314;DHT22;2170;48.794;9.182;2023-12-20T17:05:15;5.90;99.90
4314;DHT22;2170;48.794;9.182;2023-12-20T17:07:58;5.90;99.90
4314;DHT22;2170;48.794;9.182;2023-12-20T17:13:33;5.90;99.90
4314;DHT22;2170;48.794;9.182;2023-12-20T17:16:34;5.90;99.90
4314;DHT22;2170;48.794;9.182;2023-12-20T17:19:31;6.10;99.90
4314;DHT22;2170;48.794;9.182;2023-12-20T17:22:11;5.90;99.90
4314;DHT22;2170;48.794;9.182;2023-12-20T17:25:10;5.80;99.90
4314;DHT22;2170;48.794;9.182;2023-12-20T17:27:49;5.80;99.90
4314;DHT22;2170;48.794;9.182;2023-12-20T17:30:32;5.80;99.90
4314;DHT22;2170;48.794;9.182;2023-12-20T17:33:16;5.50;99.90
4314;DHT22;2170;48.794;9.182;2023-12-20T17:36:03;5.50;99.90
4314;DHT22;2170;48.794;9.182;2023-12-20T17:38:48;5.70;99.90
4314;DHT22;2170;48.794;9.182;2023-12-20T17:41:26;5.70;99.90
4314;DHT22;2170;48.794;9.182;2023-12-20T17:46:47;5.70;99.90
4314;DHT22;2170;48.794;9.182;2023-12-20T17:49:23;5.60;99.90
4314;DHT22;2170;48.794;9.182;2023-12-20T17:51:57;5.30;99.90
4314;DHT22;2170;48.794;9.182;2023-12-20T17:54:31;5.60;99.90
4314;DHT22;2170;48.794;9.182;2023-12-20T17:57:08;5.60;99.90
4314;DHT22;2170;48.794;9.182;2023-12-20T17:59:52;5.60;99.90
4314;DHT22;2170;48.794;9.182;2023-12-20T18:02:36;5.70;99.90
4314;DHT22;2170;48.794;9.182;2023-12-20T18:05:11;5.70;99.90
4314;DHT22;2170;48.794;9.182;2023-12-20T18:07:50;5.70;99.90
4314;DHT22;2170;48.794;9.182;2023-12-20T18:10:20;5.70;99.90
4314;DHT22;2170;48.794;9.182;2023-12-20T18:13:15;5.70;99.90
4314;DHT22;2170;48.794;9.182;2023-12-20T18:15:44;5.70;99.90
4314;DHT22;2170;48.794;9.182;2023-12-20T18:18:15;5.70;99.90
4314;DHT22;2170;48.794;9.182;2023-12-20T18:20:53;5.70;99.90
4314;DHT22;2170;48.794;9.182;2023-12-20T18:23:30;5.70;99.90
4314;DHT22;2170;48.794;9.182;2023-12-20T18:26:02;5.70;99.90
4314;DHT22;2170;48.794;9.182;2023-12-20T18:28:42;5.80;99.90
4314;DHT22;2170;48.794;9.182;2023-12-20T18:31:14;5.80;99.90
4314;DHT22;2170;48.794;9.182;2023-12-20T18:34:01;5.80;99.90
4314;DHT22;2170;48.794;9.182;2023-12-20T18:36:48;5.80;99.90
4314;DHT22;2170;48.794;9.182;2023-12-20T18:39:30;5.90;99.90
4314;DHT22;2170;48.794;9.182;2023-12-20T18:42:12;5.90;99.90
4314;DHT22;2170;48.794;9.182;2023-12-20T18:44:59;5.90;99.90
4314;DHT22;2170;48.794;9.182;2023-12-20T18:47:40;5.90;99.90
4314;DHT22;2170;48.794;9.182;2023-12-20T18:50:25;5.90;99.90
4314;DHT22;2170;48.794;9.182;2023-12-20T18:53:11;5.90;99.90
4314;DHT22;2170;48.794;9.182;2023-12-20T18:55:48;6.00;99.90
4314;DHT22;2170;48.794;9.182;2023-12-20T18:58:18;5.90;99.90
4314;DHT22;2170;48.794;9.182;2023-12-20T19:01:01;6.00;99.90
4314;DHT22;2170;48.794;9.182;2023-12-20T19:03:36;6.00;99.90
4314;DHT22;2170;48.794;9.182;2023-12-20T19:06:07;6.00;99.90
4314;DHT22;2170;48.794;9.182;2023-12-20T19:08:39;6.00;99.90
4314;DHT22;2170;48.794;9.182;2023-12-20T19:11:18;5.90;99.90
4314;DHT22;2170;48.794;9.182;2023-12-20T19:13:53;6.00;99.90
4314;DHT22;2170;48.794;9.182;2023-12-20T19:16:24;5.90;99.90
4314;DHT22;2170;48.794;9.182;2023-12-20T19:18:58;6.20;99.90
4314;DHT22;2170;48.794;9.182;2023-12-20T19:21:31;6.00;99.90
4314;DHT22;2170;48.794;9.182;2023-12-20T19:24:09;5.90;99.90
4314;DHT22;2170;48.794;9.182;2023-12-20T19:26:42;6.00;99.90
4314;DHT22;2170;48.794;9.182;2023-12-20T19:29:27;6.00;99.90
4314;DHT22;2170;48.794;9.182;2023-12-20T19:32:07;5.90;99.90
4314;DHT22;2170;48.794;9.182;2023-12-20T19:35:02;5.90;99.90
4314;DHT22;2170;48.794;9.182;2023-12-20T19:37:41;5.90;99.90
4314;DHT22;2170;48.794;9.182;2023-12-20T19:40:19;5.90;99.90
4314;DHT22;2170;48.794;9.182;2023-12-20T19:42:50;5.90;99.90
4314;DHT22;2170;48.794;9.182;2023-12-20T19:45:23;5.60;99.90
4314;DHT22;2170;48.794;9.182;2023-12-20T19:48:08;6.10;99.90
4314;DHT22;2170;48.794;9.182;2023-12-20T19:50:46;5.90;99.90
4314;DHT22;2170;48.794;9.182;2023-12-20T19:53:17;5.80;99.90
4314;DHT22;2170;48.794;9.182;2023-12-20T19:55:55;5.80;99.90
4314;DHT22;2170;48.794;9.182;2023-12-20T19:58:29;5.80;99.90
4314;DHT22;2170;48.794;9.182;2023-12-20T20:01:14;5.70;99.90
4314;DHT22;2170;48.794;9.182;2023-12-20T20:03:50;5.70;99.90
4314;DHT22;2170;48.794;9.182;2023-12-20T20:06:24;5.70;99.90
4314;DHT22;2170;48.794;9.182;2023-12-20T20:09:07;5.70;99.90
4314;DHT22;2170;48.794;9.182;2023-12-20T20:11:52;5.70;99.90
4314;DHT22;2170;48.794;9.182;2023-12-20T20:14:29;5.90;99.90
4314;DHT22;2170;48.794;9.182;2023-12-20T20:17:00;5.60;99.90
4314;DHT22;2170;48.794;9.182;2023-12-20T20:19:41;5.60;99.90
4314;DHT22;2170;48.794;9.182;2023-12-20T20:22:15;5.60;99.90
4314;DHT22;2170;48.794;9.182;2023-12-20T20:24:50;5.60;99.90
4314;DHT22;2170;48.794;9.182;2023-12-20T20:27:32;5.60;99.90
4314;DHT22;2170;48.794;9.182;2023-12-20T20:30:15;5.60;99.90
4314;DHT22;2170;48.794;9.182;2023-12-20T20:32:47;5.60;99.90
4314;DHT22;2170;48.794;9.182;2023-12-20T20:35:36;5.60;99.90
4314;DHT22;2170;48.794;9.182;2023-12-20T20:38:19;5.40;99.90
4314;DHT22;2170;48.794;9.182;2023-12-20T20:40:58;5.60;99.90
4314;DHT22;2170;48.794;9.182;2023-12-20T20:43:32;5.60;99.90
4314;DHT22;2170;48.794;9.182;2023-12-20T20:46:03;5.60;99.90
4314;DHT22;2170;48.794;9.182;2023-12-20T20:48:36;5.60;99.90
4314;DHT22;2170;48.794;9.182;2023-12-20T20:51:18;5.60;99.90
4314;DHT22;2170;48.794;9.182;2023-12-20T20:53:54;5.80;99.90
4314;DHT22;2170;48.794;9.182;2023-12-20T20:56:27;5.60;99.90
4314;DHT22;2170;48.794;9.182;2023-12-20T20:59:06;5.60;99.90
4314;DHT22;2170;48.794;9.182;2023-12-20T21:01:58;5.60;99.90
4314;DHT22;2170;48.794;9.182;2023-12-20T21:04:37;5.60;99.90
4314;DHT22;2170;48.794;9.182;2023-12-20T21:07:14;5.60;99.90
4314;DHT22;2170;48.794;9.182;2023-12-20T21:12:53;5.60;99.90
4314;DHT22;2170;48.794;9.182;2023-12-20T21:15:37;5.60;99.90
4314;DHT22;2170;48.794;9.182;2023-12-20T21:18:21;5.60;99.90
4314;DHT22;2170;48.794;9.182;2023-12-20T21:58:02;5.70;99.90
4314;DHT22;2170;48.794;9.182;2023-12-20T22:04:58;5.70;99.90
4314;DHT22;2170;48.794;9.182;2023-12-20T22:08:08;5.70;99.90
4314;DHT22;2170;48.794;9.182;2023-12-20T22:11:31;5.40;99.90
4314;DHT22;2170;48.794;9.182;2023-12-20T22:15:01;5.40;99.90
4314;DHT22;2170;48.794;9.182;2023-12-20T22:18:15;5.80;99.90
4314;DHT22;2170;48.794;9.182;2023-12-20T22:21:15;5.80;99.90
4314;DHT22;2170;48.794;9.182;2023-12-20T22:25:02;6.00;99.90
4314;DHT22;2170;48.794;9.182;2023-12-20T22:27:40;5.80;99.90
4314;DHT22;2170;48.794;9.182;2023-12-20T22:38:06;5.90;99.90
4314;DHT22;2170;48.794;9.182;2023-12-20T22:41:02;5.80;99.90
4314;DHT22;2170;48.794;9.182;2023-12-20T22:44:15;5.90;99.90
4314;DHT22;2170;48.794;9.182;2023-12-20T22:47:19;5.90;99.90
4314;DHT22;2170;48.794;9.182;2023-12-20T22:50:15;6.10;99.90
4314;DHT22;2170;48.794;9.182;2023-12-20T22:56:41;5.90;99.90
4314;DHT22;2170;48.794;9.182;2023-12-20T22:59:31;5.60;99.90
4314;DHT22;2170;48.794;9.182;2023-12-20T23:02:22;5.90;99.90
4314;DHT22;2170;48.794;9.182;2023-12-20T23:11:30;5.90;99.90